Time;durP1;ratioP1;P1;durP2;ratioP2;P2;SDS_P1;SDS_P2;PMS_P1;PMS_P2;Temp;Humidity;BMP_temperature;BMP_pressure;BME280_temperature;BME280_humidity;BME280_pressure;Samples;Min_cycle;Max_cycle;Signal;HPM_P1;HPM_P2
2022/05/25 00:00:36;;;;;;;14.13;7.17;;;12.60;99.90;;;;;;4189228;28;20066;-62
2022/05/25 00:02:38;;;;;;;19.80;6.40;;;12.60;99.90;;;;;;4190872;28;20090;-62
2022/05/25 00:04:39;;;;;;;11.73;6.60;;;12.50;99.90;;;;;;4189842;28;20082;-63
2022/05/25 00:06:41;;;;;;;16.97;5.83;;;12.50;99.90;;;;;;4190677;28;20762;-63
2022/05/25 00:08:43;;;;;;;11.50;6.47;;;12.50;99.90;;;;;;4190149;28;20028;-62
2022/05/25 00:10:44;;;;;;;13.07;6.33;;;12.50;99.90;;;;;;4190858;28;20078;-62
2022/05/25 00:12:45;;;;;;;14.97;6.60;;;12.40;99.90;;;;;;4190032;28;20045;-61
2022/05/25 00:14:47;;;;;;;15.60;7.00;;;12.40;99.90;;;;;;4190264;28;20041;-63
2022/05/25 00:16:48;;;;;;;10.33;6.40;;;12.40;99.90;;;;;;4189887;28;20075;-62
2022/05/25 00:21:10;;;;;;;10.40;6.63;;;12.40;99.90;;;;;;4190125;28;20086;-63
2022/05/25 00:23:11;;;;;;;12.77;6.03;;;12.40;99.90;;;;;;4189840;28;20028;-63
2022/05/25 00:25:21;;;;;;;14.57;6.67;;;12.40;99.90;;;;;;4189862;28;20098;-62
2022/05/25 00:27:23;;;;;;;12.02;6.40;;;12.40;99.90;;;;;;4174814;28;20040;-62
2022/05/25 00:29:24;;;;;;;10.50;6.50;;;12.40;99.90;;;;;;4173860;28;20091;-61
2022/05/25 00:31:25;;;;;;;8.93;5.77;;;12.40;99.90;;;;;;4173344;28;20029;-61
2022/05/25 00:33:26;;;;;;;9.90;6.10;;;12.40;99.90;;;;;;4185711;28;20436;-62
2022/05/25 00:35:30;;;;;;;9.03;6.07;;;12.40;99.90;;;;;;4189685;28;20365;-62
2022/05/25 00:37:31;;;;;;;11.53;6.17;;;12.40;99.90;;;;;;4190717;28;20020;-61
2022/05/25 00:39:32;;;;;;;10.30;6.13;;;12.40;99.90;;;;;;4189629;28;20048;-62
2022/05/25 00:41:34;;;;;;;11.30;5.97;;;12.30;99.90;;;;;;4189744;28;20082;-62
2022/05/25 00:43:37;;;;;;;17.50;5.90;;;12.30;99.90;;;;;;4188706;28;20028;-61
2022/05/25 00:45:46;;;;;;;9.70;6.10;;;12.20;99.90;;;;;;4190661;28;20093;-63
2022/05/25 00:47:51;;;;;;;11.53;6.00;;;12.10;99.90;;;;;;4187480;28;20028;-64
2022/05/25 00:49:52;;;;;;;9.93;6.00;;;12.10;99.90;;;;;;4190543;28;20117;-61
2022/05/25 00:52:02;;;;;;;9.33;6.57;;;12.10;99.90;;;;;;4189319;28;20037;-62
2022/05/25 00:54:11;;;;;;;11.63;6.35;;;12.00;99.90;;;;;;4178322;28;20062;-63
2022/05/25 00:56:16;;;;;;;13.13;6.80;;;12.00;99.90;;;;;;4172521;28;20419;-62
2022/05/25 00:58:17;;;;;;;9.17;6.23;;;12.00;99.90;;;;;;4173447;28;20086;-64
2022/05/25 01:00:23;;;;;;;13.03;6.00;;;12.00;99.90;;;;;;4172680;28;20094;-62
2022/05/25 01:02:28;;;;;;;10.80;5.97;;;12.10;99.90;;;;;;4173697;28;20075;-60
2022/05/25 01:04:29;;;;;;;10.43;6.60;;;12.10;99.90;;;;;;4172551;28;20095;-63
2022/05/25 01:07:00;;;;;;;13.33;6.80;;;12.10;99.90;;;;;;4173292;28;20574;-63
2022/05/25 01:09:16;;;;;;;9.00;6.03;;;12.10;99.90;;;;;;4172376;28;20082;-63
2022/05/25 01:11:45;;;;;;;9.50;5.73;;;12.10;99.90;;;;;;4172133;28;20045;-62
2022/05/25 01:14:22;;;;;;;12.97;7.33;;;12.10;99.90;;;;;;4172431;28;20091;-62
2022/05/25 01:16:36;;;;;;;13.83;6.80;;;12.10;99.90;;;;;;4173238;28;20029;-62
2022/05/25 01:19:02;;;;;;;11.83;6.70;;;12.10;99.90;;;;;;4173835;28;20045;-63
2022/05/25 01:21:31;;;;;;;11.57;7.90;;;12.10;99.90;;;;;;4189566;28;20064;-63
2022/05/25 01:23:35;;;;;;;10.60;7.30;;;12.10;99.90;;;;;;4188579;28;20042;-63
2022/05/25 01:25:42;;;;;;;12.83;7.17;;;12.00;99.90;;;;;;4189029;28;20451;-62
2022/05/25 01:27:46;;;;;;;14.50;7.80;;;12.00;99.90;;;;;;4189028;28;20036;-62
2022/05/25 01:30:11;;;;;;;12.73;7.93;;;12.00;99.90;;;;;;4187934;28;20598;-65
2022/05/25 01:32:21;;;;;;;14.27;8.33;;;12.00;99.90;;;;;;4189010;28;20082;-62
2022/05/25 01:34:32;;;;;;;13.77;8.45;;;11.90;99.90;;;;;;4189045;28;20028;-65
2022/05/25 01:36:44;;;;;;;14.60;8.45;;;11.90;99.90;;;;;;4189321;28;20025;-62
2022/05/25 01:38:54;;;;;;;13.73;8.23;;;11.90;99.90;;;;;;4189399;28;20086;-63
2022/05/25 01:41:21;;;;;;;19.00;10.35;;;11.90;99.90;;;;;;4188265;28;20041;-63
2022/05/25 01:43:33;;;;;;;22.57;10.80;;;11.90;99.90;;;;;;4188818;28;20070;-63
2022/05/25 01:45:41;;;;;;;14.73;9.03;;;11.80;99.90;;;;;;4186814;28;21643;-61
2022/05/25 01:47:45;;;;;;;12.97;8.43;;;11.80;99.90;;;;;;4172035;28;20032;-61
2022/05/25 01:50:14;;;;;;;13.50;8.13;;;11.80;99.90;;;;;;4172955;28;20083;-62
2022/05/25 01:52:20;;;;;;;12.90;9.13;;;11.80;99.90;;;;;;4172186;28;20037;-63
2022/05/25 01:54:27;;;;;;;16.13;9.23;;;11.70;99.90;;;;;;4172373;28;20045;-63
2022/05/25 01:56:32;;;;;;;12.47;8.00;;;11.70;99.90;;;;;;4172101;28;20033;-63
2022/05/25 01:58:37;;;;;;;14.03;7.73;;;11.80;99.90;;;;;;4172743;28;20033;-62
2022/05/25 02:00:45;;;;;;;12.37;7.63;;;11.70;99.90;;;;;;4172873;28;20122;-62
2022/05/25 02:05:16;;;;;;;17.77;7.68;;;11.70;99.90;;;;;;4172524;28;20134;-61
2022/05/25 02:08:02;;;;;;;13.67;8.37;;;11.70;99.90;;;;;;4172765;28;20115;-61
2022/05/25 02:10:21;;;;;;;12.13;7.67;;;11.70;99.90;;;;;;4169595;28;20568;-62
2022/05/25 02:12:34;;;;;;;13.43;7.53;;;11.80;99.90;;;;;;4175497;28;20474;-62
2022/05/25 02:14:50;;;;;;;8.97;6.87;;;11.80;99.90;;;;;;4186963;28;20032;-63
2022/05/25 02:17:12;;;;;;;10.60;7.53;;;11.70;99.90;;;;;;4189492;28;20040;-63
2022/05/25 02:19:26;;;;;;;13.43;7.80;;;11.70;99.90;;;;;;4188022;28;20036;-63
2022/05/25 02:21:39;;;;;;;13.43;8.73;;;11.70;99.90;;;;;;4188946;28;20041;-62
2022/05/25 02:23:40;;;;;;;14.33;7.87;;;11.70;99.90;;;;;;4188040;28;20040;-64
2022/05/25 02:25:58;;;;;;;9.97;7.27;;;11.70;99.90;;;;;;4188870;28;20040;-64
2022/05/25 02:28:11;;;;;;;18.77;8.50;;;11.70;99.90;;;;;;4187906;28;20025;-62
2022/05/25 02:30:20;;;;;;;16.97;9.33;;;11.70;99.90;;;;;;4189283;28;20049;-63
2022/05/25 02:32:32;;;;;;;13.73;9.17;;;11.70;99.90;;;;;;4191328;28;20044;-62
2022/05/25 02:34:34;;;;;;;11.87;7.97;;;11.70;99.90;;;;;;4191689;28;20028;-63
2022/05/25 02:36:37;;;;;;;11.90;8.57;;;11.70;99.90;;;;;;4191787;28;20017;-63
2022/05/25 02:38:41;;;;;;;13.33;7.73;;;11.70;99.90;;;;;;4192574;28;20077;-61
2022/05/25 02:40:42;;;;;;;13.60;8.43;;;11.70;99.90;;;;;;4175531;28;20091;-62
2022/05/25 02:42:44;;;;;;;12.83;8.03;;;11.70;99.90;;;;;;4176561;28;20086;-62
2022/05/25 02:44:45;;;;;;;12.33;7.47;;;11.70;99.90;;;;;;4174874;28;20025;-61
2022/05/25 02:46:47;;;;;;;11.20;7.60;;;11.80;99.90;;;;;;4175412;28;20040;-62
2022/05/25 02:48:48;;;;;;;12.03;6.83;;;11.90;99.90;;;;;;4174670;28;20033;-62
2022/05/25 02:50:49;;;;;;;11.63;6.03;;;11.90;99.90;;;;;;4174389;28;20502;-61
2022/05/25 02:52:50;;;;;;;8.40;6.77;;;12.00;99.90;;;;;;4174667;28;20087;-63
2022/05/25 02:54:51;;;;;;;10.93;6.20;;;12.10;99.90;;;;;;4175679;28;20571;-64
2022/05/25 02:56:52;;;;;;;9.83;6.87;;;12.10;99.90;;;;;;4174878;28;20041;-63
2022/05/25 02:58:53;;;;;;;9.73;6.23;;;12.20;99.90;;;;;;4173219;28;20029;-64
2022/05/25 03:00:55;;;;;;;15.30;6.80;;;12.20;99.90;;;;;;4174484;28;20045;-63
2022/05/25 03:02:58;;;;;;;11.23;6.97;;;12.30;99.90;;;;;;4174525;28;20363;-63
2022/05/25 03:04:59;;;;;;;13.60;7.30;;;12.50;99.90;;;;;;4183728;28;20338;-62
2022/05/25 03:07:00;;;;;;;11.63;6.30;;;12.60;99.90;;;;;;4191003;28;20074;-63
2022/05/25 03:09:02;;;;;;;12.57;6.93;;;12.80;99.90;;;;;;4191708;28;20046;-62
2022/05/25 03:11:04;;;;;;;10.50;6.13;;;12.90;99.90;;;;;;4190172;28;20090;-64
2022/05/25 03:13:07;;;;;;;11.30;6.90;;;13.00;99.90;;;;;;4187308;28;20053;-63
2022/05/25 03:15:08;;;;;;;9.00;6.67;;;13.00;99.90;;;;;;4184175;28;20037;-62
2022/05/25 03:17:14;;;;;;;7.90;5.80;;;13.20;99.90;;;;;;4175246;28;20033;-62
2022/05/25 03:19:17;;;;;;;9.03;5.67;;;13.30;99.90;;;;;;4173851;28;20037;-63
2022/05/25 03:21:20;;;;;;;9.80;6.03;;;13.30;99.90;;;;;;4174811;28;20464;-62
2022/05/25 03:23:21;;;;;;;9.00;5.67;;;13.50;99.90;;;;;;4173357;28;20036;-61
2022/05/25 03:25:22;;;;;;;13.57;6.20;;;13.60;99.90;;;;;;4178806;28;20448;-62
2022/05/25 03:27:23;;;;;;;8.90;6.23;;;13.80;99.90;;;;;;4190505;28;20040;-62
2022/05/25 03:29:25;;;;;;;13.03;6.20;;;14.00;99.90;;;;;;4191102;28;20165;-63
2022/05/25 03:31:27;;;;;;;7.93;6.13;;;14.30;99.90;;;;;;4190651;28;20079;-62
2022/05/25 03:33:28;;;;;;;9.47;6.23;;;14.70;99.90;;;;;;4190783;28;20054;-62
2022/05/25 03:35:29;;;;;;;9.13;5.27;;;14.70;99.90;;;;;;4190828;28;20032;-62
2022/05/25 03:37:30;;;;;;;11.50;5.80;;;14.70;99.90;;;;;;4191208;28;20070;-62
2022/05/25 03:39:32;;;;;;;12.10;5.77;;;14.80;99.90;;;;;;4190374;28;20032;-64
2022/05/25 03:41:33;;;;;;;9.63;6.13;;;15.00;99.90;;;;;;4175983;28;20033;-63
2022/05/25 03:43:37;;;;;;;9.03;6.50;;;15.10;99.90;;;;;;4180118;28;20097;-62
2022/05/25 03:45:38;;;;;;;11.03;6.60;;;15.30;99.90;;;;;;4189355;28;20036;-61
2022/05/25 03:47:40;;;;;;;14.77;6.27;;;15.30;99.90;;;;;;4191008;28;20095;-63
2022/05/25 03:49:41;;;;;;;9.67;5.67;;;15.40;99.90;;;;;;4189372;28;20514;-61
2022/05/25 03:51:43;;;;;;;11.27;6.13;;;15.50;99.90;;;;;;4190916;28;20044;-61
2022/05/25 03:53:44;;;;;;;11.67;6.10;;;15.90;99.90;;;;;;4155204;28;20087;-62
2022/05/25 03:55:47;;;;;;;14.50;7.13;;;16.30;99.90;;;;;;4161812;28;20366;-62
2022/05/25 03:57:48;;;;;;;11.88;6.47;;;16.80;99.90;;;;;;4173017;28;20455;-66
2022/05/25 03:59:49;;;;;;;11.40;6.28;;;17.00;99.90;;;;;;4174085;28;20075;-64
2022/05/25 04:01:50;;;;;;;8.90;5.72;;;17.30;99.90;;;;;;4172853;28;20033;-66
2022/05/25 04:03:52;;;;;;;10.38;6.15;;;17.60;99.90;;;;;;4173904;28;20083;-64
2022/05/25 04:05:53;;;;;;;14.45;6.22;;;17.80;99.90;;;;;;4173386;28;20037;-63
2022/05/25 04:07:56;;;;;;;14.35;5.90;;;18.00;99.90;;;;;;4184667;28;20090;-63
2022/05/25 04:09:58;;;;;;;7.20;4.65;;;18.00;99.90;;;;;;4190453;28;20086;-62
2022/05/25 04:11:59;;;;;;;7.95;5.20;;;18.00;99.90;;;;;;4189280;28;20064;-64
2022/05/25 04:14:01;;;;;;;6.43;4.85;;;18.10;99.90;;;;;;4190532;28;20307;-65
2022/05/25 04:16:02;;;;;;;10.20;6.05;;;17.90;99.90;;;;;;4189536;28;20883;-64
2022/05/25 04:18:04;;;;;;;9.38;4.88;;;18.10;99.90;;;;;;4189729;28;20041;-64
2022/05/25 04:20:07;;;;;;;8.02;5.47;;;18.20;99.90;;;;;;4188388;28;20181;-64
2022/05/25 04:22:08;;;;;;;9.52;5.18;;;18.30;99.90;;;;;;4177625;28;20052;-65
2022/05/25 04:24:16;;;;;;;8.27;4.97;;;18.40;99.90;;;;;;4172325;28;20078;-63
2022/05/25 04:26:17;;;;;;;8.43;5.13;;;18.30;99.90;;;;;;4173433;28;20074;-64
2022/05/25 04:28:19;;;;;;;9.68;5.20;;;18.00;99.90;;;;;;4180199;28;20032;-63
2022/05/25 04:30:24;;;;;;;7.85;5.10;;;18.00;99.90;;;;;;4173603;28;20103;-64
2022/05/25 04:32:25;;;;;;;7.07;4.90;;;17.90;99.90;;;;;;4168392;28;20155;-66
2022/05/25 04:34:26;;;;;;;6.38;5.03;;;17.60;99.90;;;;;;4160809;28;20082;-66
2022/05/25 04:36:27;;;;;;;8.38;5.00;;;17.30;99.90;;;;;;4172792;28;20037;-64
2022/05/25 04:38:29;;;;;;;7.05;4.47;;;17.00;99.90;;;;;;4172845;28;20094;-65
2022/05/25 04:40:40;;;;;;;11.48;5.22;;;16.70;99.90;;;;;;4172179;28;20094;-63
2022/05/25 04:42:41;;;;;;;25.45;15.43;;;16.80;99.90;;;;;;4166351;28;20048;-64
2022/05/25 04:44:43;;;;;;;8.32;5.65;;;17.00;99.90;;;;;;4173763;28;20082;-63
2022/05/25 04:46:45;;;;;;;8.27;4.68;;;17.00;99.90;;;;;;4172291;28;20037;-61
2022/05/25 04:48:46;;;;;;;5.65;4.55;;;17.20;99.90;;;;;;4172936;28;21045;-62
2022/05/25 04:50:48;;;;;;;7.82;5.10;;;17.10;99.90;;;;;;4172371;28;20029;-64
2022/05/25 04:52:50;;;;;;;7.63;5.15;;;17.10;99.90;;;;;;4173189;28;20029;-63
2022/05/25 04:54:51;;;;;;;11.27;4.97;;;17.20;99.90;;;;;;4171123;28;20523;-62
2022/05/25 04:59:14;;;;;;;8.05;4.63;;;17.80;99.90;;;;;;4156042;28;20025;-61
2022/05/25 05:01:19;;;;;;;11.02;5.20;;;18.00;99.90;;;;;;4156547;28;20490;-59
2022/05/25 05:03:23;;;;;;;9.00;5.53;;;18.00;99.90;;;;;;4155629;28;20080;-62
2022/05/25 05:05:25;;;;;;;7.75;5.28;;;18.00;99.90;;;;;;4156611;28;20041;-63
2022/05/25 05:07:34;;;;;;;5.88;4.65;;;18.10;99.90;;;;;;4155706;28;20041;-64
2022/05/25 05:09:37;;;;;;;6.25;5.05;;;18.10;99.90;;;;;;4156568;28;20033;-63
2022/05/25 05:11:38;;;;;;;14.13;5.15;;;18.20;99.90;;;;;;4155721;28;20351;-64
2022/05/25 05:13:39;;;;;;;8.05;6.45;;;18.30;99.90;;;;;;4156564;28;20058;-63
2022/05/25 05:15:45;;;;;;;8.50;5.10;;;18.50;99.90;;;;;;4155163;28;20102;-63
2022/05/25 05:17:47;;;;;;;9.88;5.25;;;18.50;99.90;;;;;;4156027;28;20099;-63
2022/05/25 05:19:48;;;;;;;10.38;5.85;;;18.90;99.90;;;;;;4156041;28;20053;-63
2022/05/25 05:21:49;;;;;;;8.70;4.90;;;19.00;99.90;;;;;;4155866;28;20095;-63
2022/05/25 05:23:50;;;;;;;8.50;5.20;;;19.10;99.90;;;;;;4155285;28;20379;-63
2022/05/25 05:25:51;;;;;;;5.47;4.78;;;19.20;99.90;;;;;;4155201;28;20037;-64
2022/05/25 05:27:53;;;;;;;9.30;5.57;;;19.20;99.90;;;;;;4155386;28;20037;-62
2022/05/25 05:29:59;;;;;;;10.52;5.82;;;19.40;99.90;;;;;;4155276;28;20041;-61
2022/05/25 05:32:00;;;;;;;7.15;5.18;;;19.70;99.90;;;;;;4155584;28;20063;-62
2022/05/25 05:34:01;;;;;;;9.35;4.63;;;19.80;99.90;;;;;;4154722;28;20133;-63
2022/05/25 05:36:23;;;;;;;7.18;5.20;;;20.10;99.90;;;;;;4156290;28;20091;-64
2022/05/25 05:38:25;;;;;;;6.22;4.53;;;20.70;99.90;;;;;;4155343;28;20540;-63
2022/05/25 05:40:28;;;;;;;8.30;4.25;;;21.20;99.90;;;;;;4155798;28;20623;-62
2022/05/25 05:42:29;;;;;;;5.90;4.80;;;21.70;99.90;;;;;;4154790;28;20049;-62
2022/05/25 05:44:35;;;;;;;11.13;5.30;;;21.90;99.90;;;;;;4155559;28;20091;-62
2022/05/25 05:46:41;;;;;;;6.95;4.40;;;21.60;99.90;;;;;;4155159;28;20026;-62
2022/05/25 05:48:42;;;;;;;6.13;4.13;;;21.40;99.90;;;;;;4155416;28;20111;-62
2022/05/25 05:50:44;;;;;;;7.45;4.75;;;21.20;99.90;;;;;;4154941;28;20041;-62
2022/05/25 05:52:45;;;;;;;6.40;4.70;;;21.20;99.90;;;;;;4155751;28;20037;-62
2022/05/25 05:54:46;;;;;;;8.35;4.70;;;21.40;99.90;;;;;;4155269;28;20080;-63
2022/05/25 05:56:48;;;;;;;8.70;5.00;;;21.90;99.90;;;;;;4153878;28;20034;-63
2022/05/25 05:58:49;;;;;;;5.47;4.13;;;22.10;99.90;;;;;;4155396;28;20536;-63
2022/05/25 06:00:50;;;;;;;6.97;4.20;;;22.40;99.90;;;;;;4155671;28;20687;-65
2022/05/25 06:02:52;;;;;;;8.48;4.25;;;22.80;99.90;;;;;;4155126;28;20084;-62
2022/05/25 06:04:53;;;;;;;7.32;4.45;;;23.00;99.90;;;;;;4156603;28;20021;-62
2022/05/25 06:06:54;;;;;;;8.55;5.40;;;22.20;99.90;;;;;;4161017;28;20143;-62
2022/05/25 06:08:56;;;;;;;7.95;5.07;;;21.80;99.90;;;;;;4160843;28;20037;-63
2022/05/25 06:10:59;;;;;;;6.90;3.47;;;21.60;99.90;;;;;;4160849;28;20268;-62
2022/05/25 06:13:00;;;;;;;5.25;4.22;;;22.10;99.90;;;;;;4160299;28;20065;-61
2022/05/25 06:19:25;;;;;;;10.68;4.15;;;22.60;99.90;;;;;;4160872;28;20493;-62
2022/05/25 06:19:43;;;;;;;6.05;4.68;;;22.30;99.90;;;;;;4161303;28;20758;-63
2022/05/25 06:21:44;;;;;;;5.13;3.33;;;22.10;99.90;;;;;;4159972;28;20407;-63
2022/05/25 06:23:45;;;;;;;6.50;3.55;;;22.50;99.90;;;;;;4161213;28;20382;-63
2022/05/25 06:25:47;;;;;;;4.53;3.63;;;23.10;99.90;;;;;;4159841;28;20103;-63
2022/05/25 06:27:48;;;;;;;9.82;4.80;;;23.20;99.70;;;;;;4161256;28;20071;-63
2022/05/25 06:29:49;;;;;;;3.97;3.30;;;23.40;99.40;;;;;;4159641;28;20440;-61
2022/05/25 06:31:51;;;;;;;5.78;4.00;;;23.60;99.10;;;;;;4161155;28;20026;-63
2022/05/25 06:33:52;;;;;;;7.00;4.60;;;23.30;98.90;;;;;;4159523;28;20489;-63
2022/05/25 06:35:53;;;;;;;8.88;4.28;;;22.70;99.30;;;;;;4161441;28;20037;-62
2022/05/25 06:37:55;;;;;;;9.40;4.43;;;22.50;99.80;;;;;;4159874;28;20041;-61
2022/05/25 06:39:56;;;;;;;15.35;3.85;;;22.50;99.90;;;;;;4161045;28;20515;-62
2022/05/25 06:41:57;;;;;;;9.35;4.25;;;22.90;99.90;;;;;;4160065;28;20118;-62
2022/05/25 06:43:58;;;;;;;9.30;4.40;;;23.10;99.20;;;;;;4160872;28;20087;-62
2022/05/25 06:45:59;;;;;;;7.25;4.30;;;22.90;99.40;;;;;;4160235;28;20072;-61
2022/05/25 06:48:06;;;;;;;8.25;4.30;;;22.60;99.50;;;;;;4160545;28;20033;-62
2022/05/25 06:50:08;;;;;;;6.10;3.80;;;22.70;99.60;;;;;;4160702;28;20055;-62
2022/05/25 06:52:10;;;;;;;10.55;4.38;;;23.00;99.30;;;;;;4160007;28;20033;-63
2022/05/25 06:54:15;;;;;;;9.98;4.32;;;23.60;98.70;;;;;;4160551;28;20096;-64
2022/05/25 06:56:22;;;;;;;7.20;3.80;;;23.90;98.10;;;;;;4159772;28;20042;-63
2022/05/25 06:58:24;;;;;;;7.97;3.70;;;23.90;97.90;;;;;;4160992;28;20087;-62
2022/05/25 07:00:25;;;;;;;9.20;4.47;;;23.90;97.80;;;;;;4159629;28;20025;-64
2022/05/25 07:02:26;;;;;;;10.23;4.30;;;23.60;97.90;;;;;;4160745;28;20087;-62
2022/05/25 07:04:28;;;;;;;9.40;5.15;;;23.20;98.40;;;;;;4160167;28;20029;-63
2022/05/25 07:06:29;;;;;;;9.68;5.38;;;22.70;98.80;;;;;;4160833;28;20033;-63
2022/05/25 07:08:30;;;;;;;12.15;4.93;;;22.40;99.40;;;;;;4159786;28;20433;-64
2022/05/25 07:10:32;;;;;;;17.33;5.50;;;22.30;99.70;;;;;;4159073;28;20107;-62
2022/05/25 07:12:33;;;;;;;11.88;6.05;;;21.70;99.90;;;;;;4160208;28;20115;-63
2022/05/25 07:14:36;;;;;;;10.90;5.28;;;21.70;99.90;;;;;;4160539;28;20099;-63
2022/05/25 07:16:37;;;;;;;11.90;4.55;;;21.90;99.90;;;;;;4158084;28;20017;-62
2022/05/25 07:18:39;;;;;;;11.45;6.13;;;21.90;99.90;;;;;;4156269;28;20037;-62
2022/05/25 07:20:40;;;;;;;13.02;5.80;;;21.80;99.90;;;;;;4157498;28;20103;-63
2022/05/25 07:22:41;;;;;;;13.50;5.32;;;21.80;99.90;;;;;;4157835;28;20524;-62
2022/05/25 07:24:43;;;;;;;14.48;5.70;;;21.80;99.90;;;;;;4157740;28;20033;-64
2022/05/25 07:26:44;;;;;;;11.00;5.13;;;21.90;99.90;;;;;;4155955;28;20099;-63
2022/05/25 07:28:46;;;;;;;11.48;5.05;;;22.00;99.90;;;;;;4157660;28;20041;-62
2022/05/25 07:30:49;;;;;;;19.27;7.85;;;22.00;99.90;;;;;;4156811;28;20064;-62
2022/05/25 07:32:50;;;;;;;10.27;4.22;;;22.30;99.90;;;;;;4158031;28;20063;-66
2022/05/25 07:34:58;;;;;;;13.00;5.32;;;22.20;99.90;;;;;;4156861;28;20115;-62
2022/05/25 07:37:10;;;;;;;11.18;4.63;;;22.30;99.90;;;;;;4158309;28;20037;-61
2022/05/25 07:39:14;;;;;;;14.45;4.45;;;22.60;99.90;;;;;;4157135;28;20155;-62
2022/05/25 07:41:18;;;;;;;15.52;7.45;;;22.60;99.90;;;;;;4156816;28;20045;-63
2022/05/25 07:43:24;;;;;;;7.15;4.68;;;22.60;99.90;;;;;;4156555;28;20033;-63
2022/05/25 07:45:25;;;;;;;10.40;4.63;;;22.70;99.90;;;;;;4157498;28;20046;-62
2022/05/25 07:47:29;;;;;;;9.15;4.65;;;22.60;99.90;;;;;;4156796;28;20505;-64
2022/05/25 07:49:30;;;;;;;7.47;4.53;;;22.50;99.90;;;;;;4157697;28;20045;-63
2022/05/25 07:51:32;;;;;;;8.93;4.05;;;22.30;99.90;;;;;;4156291;28;20087;-62
2022/05/25 07:55:53;;;;;;;5.88;3.67;;;22.60;99.90;;;;;;4156261;28;20542;-63
2022/05/25 07:57:54;;;;;;;7.65;3.40;;;22.70;99.40;;;;;;4155360;28;20148;-62
2022/05/25 07:59:55;;;;;;;7.30;3.78;;;22.80;99.60;;;;;;4156325;28;20038;-64
2022/05/25 08:06:45;;;;;;;6.78;3.53;;;22.20;99.80;;;;;;4157549;28;20118;-63
2022/05/25 08:08:46;;;;;;;4.57;2.75;;;22.40;99.60;;;;;;4157000;28;20025;-61
2022/05/25 08:10:54;;;;;;;5.70;3.00;;;22.60;99.50;;;;;;4157385;28;20371;-62
2022/05/25 08:12:57;;;;;;;4.32;2.58;;;23.00;99.20;;;;;;4156362;28;20144;-62
2022/05/25 08:15:00;;;;;;;5.00;2.47;;;23.00;98.70;;;;;;4155722;28;20116;-62
2022/05/25 08:17:01;;;;;;;6.40;2.80;;;23.00;98.80;;;;;;4156226;28;20090;-64
2022/05/25 08:19:02;;;;;;;6.13;3.33;;;22.90;99.00;;;;;;4156634;28;20087;-63
2022/05/25 08:21:05;;;;;;;7.50;3.42;;;22.90;99.00;;;;;;4157071;28;20187;-64
2022/05/25 08:23:08;;;;;;;4.65;2.75;;;22.80;98.70;;;;;;4155853;28;20076;-63
2022/05/25 08:25:11;;;;;;;7.93;3.13;;;22.70;98.80;;;;;;4156813;28;20041;-64
2022/05/25 08:27:12;;;;;;;4.55;3.17;;;22.70;98.80;;;;;;4156666;28;20485;-63
2022/05/25 08:29:13;;;;;;;5.95;2.60;;;22.50;99.00;;;;;;4156817;28;20405;-62
2022/05/25 08:31:15;;;;;;;8.35;3.10;;;22.30;99.20;;;;;;4156037;28;20111;-63
2022/05/25 08:33:18;;;;;;;5.43;2.90;;;22.10;99.30;;;;;;4157177;28;20542;-63
2022/05/25 08:35:19;;;;;;;6.20;3.10;;;22.20;99.40;;;;;;4155746;28;20547;-63
2022/05/25 08:37:20;;;;;;;6.20;3.17;;;22.30;99.30;;;;;;4156501;28;20096;-63
2022/05/25 08:39:22;;;;;;;6.75;3.03;;;22.30;99.10;;;;;;4156237;28;20041;-63
2022/05/25 08:41:29;;;;;;;3.60;3.13;;;22.50;99.10;;;;;;4156458;28;20107;-63
2022/05/25 08:43:50;;;;;;;9.63;3.42;;;22.40;99.10;;;;;;4155665;28;20080;-63
2022/05/25 08:46:00;;;;;;;3.65;2.92;;;22.50;99.20;;;;;;4154499;28;20808;-63
2022/05/25 08:48:04;;;;;;;4.13;2.45;;;22.50;98.90;;;;;;4156019;28;20046;-64
2022/05/25 08:50:06;;;;;;;4.40;3.15;;;22.40;98.90;;;;;;4155425;28;20149;-64
2022/05/25 08:52:23;;;;;;;4.20;3.00;;;22.30;99.10;;;;;;4156023;28;20503;-64
2022/05/25 08:54:27;;;;;;;4.90;2.70;;;22.40;99.70;;;;;;4156716;28;20071;-64
2022/05/25 08:56:47;;;;;;;5.13;3.15;;;22.40;99.70;;;;;;4155660;28;20045;-64
2022/05/25 08:58:51;;;;;;;3.33;2.67;;;22.50;99.80;;;;;;4156673;28;20053;-63
2022/05/25 09:00:53;;;;;;;5.32;2.80;;;22.60;99.60;;;;;;4155460;28;20038;-63
2022/05/25 09:03:22;;;;;;;5.15;2.85;;;22.50;99.60;;;;;;4156732;28;20030;-63
2022/05/25 09:06:08;;;;;;;8.43;2.67;;;22.50;99.40;;;;;;4155461;28;20441;-62
2022/05/25 09:08:31;;;;;;;5.57;3.15;;;22.40;99.50;;;;;;4140108;28;20091;-63
2022/05/25 09:10:43;;;;;;;4.80;2.85;;;22.50;99.70;;;;;;4155981;28;20107;-64
2022/05/25 09:12:51;;;;;;;3.78;2.35;;;22.60;99.70;;;;;;4155412;28;20103;-62
2022/05/25 09:15:00;;;;;;;7.47;2.75;;;22.70;99.50;;;;;;4155547;28;20909;-62
2022/05/25 09:17:07;;;;;;;4.15;2.92;;;22.90;99.00;;;;;;4155701;28;20029;-62
2022/05/25 09:19:11;;;;;;;4.03;3.03;;;23.20;98.60;;;;;;4154933;28;20179;-63
2022/05/25 09:21:13;;;;;;;4.20;2.97;;;23.60;98.20;;;;;;4156358;28;20037;-62
2022/05/25 09:23:15;;;;;;;7.30;3.10;;;23.80;97.70;;;;;;4155068;28;20037;-64
2022/05/25 09:25:17;;;;;;;7.25;3.40;;;23.90;97.40;;;;;;4155804;28;20033;-64
2022/05/25 09:27:24;;;;;;;5.18;2.78;;;24.00;97.30;;;;;;4155417;28;20073;-63
2022/05/25 09:29:26;;;;;;;3.55;3.10;;;24.00;97.00;;;;;;4155949;28;20033;-63
2022/05/25 09:31:34;;;;;;;5.75;2.72;;;23.90;97.10;;;;;;4155101;28;20022;-64
2022/05/25 09:33:49;;;;;;;7.60;3.47;;;23.90;97.20;;;;;;4156181;28;20033;-66
2022/05/25 09:36:07;;;;;;;5.80;2.72;;;23.90;97.80;;;;;;4154808;28;20102;-64
2022/05/25 09:38:30;;;;;;;5.95;2.83;;;24.20;97.30;;;;;;4156094;28;20045;-64
2022/05/25 09:40:53;;;;;;;7.05;2.78;;;24.20;96.40;;;;;;4153939;28;20041;-63
2022/05/25 09:42:57;;;;;;;6.38;3.13;;;23.80;97.00;;;;;;4154153;28;20053;-63
2022/05/25 09:45:00;;;;;;;8.52;2.80;;;23.40;97.30;;;;;;4155213;28;20018;-64
2022/05/25 09:47:06;;;;;;;6.45;2.92;;;23.30;97.80;;;;;;4155697;28;20080;-63
2022/05/25 09:49:14;;;;;;;4.70;2.65;;;23.40;97.60;;;;;;4155035;28;20037;-63
2022/05/25 09:51:42;;;;;;;4.40;2.65;;;23.50;97.50;;;;;;4155661;28;20068;-64
2022/05/25 09:53:53;;;;;;;3.90;3.00;;;23.90;97.30;;;;;;4155309;28;20095;-64
2022/05/25 09:56:09;;;;;;;4.35;3.00;;;24.10;96.90;;;;;;4155696;28;20107;-65
2022/05/25 09:58:30;;;;;;;4.47;3.20;;;;;;;;;;4155285;28;20472;-63
2022/05/25 10:00:35;;;;;;;7.53;3.08;;;;;;;;;;4154153;28;20773;-63
2022/05/25 10:02:50;;;;;;;6.82;3.08;;;24.20;96.80;;;;;;4154557;28;20103;-63
2022/05/25 10:04:52;;;;;;;5.03;2.67;;;24.70;96.40;;;;;;4155013;28;20033;-63
2022/05/25 10:06:53;;;;;;;3.67;2.63;;;24.70;96.50;;;;;;4155178;28;20183;-63
2022/05/25 10:09:12;;;;;;;2.95;2.60;;;24.40;96.40;;;;;;4155863;28;20107;-64
2022/05/25 10:11:29;;;;;;;5.88;3.13;;;24.10;96.60;;;;;;4154638;28;20063;-63
2022/05/25 10:13:42;;;;;;;6.22;2.63;;;24.10;96.70;;;;;;4153819;28;20049;-63
2022/05/25 10:15:46;;;;;;;5.28;3.40;;;24.30;96.80;;;;;;4155162;28;20583;-62
2022/05/25 10:17:48;;;;;;;4.05;2.70;;;;;;;;;;4154930;28;20029;-62
2022/05/25 10:19:53;;;;;;;5.32;2.50;;;;;;;;;;4153721;28;20042;-63
2022/05/25 10:22:01;;;;;;;10.10;2.85;;;24.60;96.40;;;;;;4155648;28;20062;-63
2022/05/25 10:24:16;;;;;;;5.45;2.58;;;24.50;95.60;;;;;;4155250;28;20095;-63
2022/05/25 10:26:32;;;;;;;5.50;2.40;;;24.50;95.50;;;;;;4155319;28;20100;-62
2022/05/25 10:28:58;;;;;;;4.85;2.42;;;24.60;95.60;;;;;;4154799;28;20021;-63
2022/05/25 10:38:27;;;;;;;7.60;2.63;;;24.00;95.80;;;;;;4156354;28;20075;-64
2022/05/25 10:40:31;;;;;;;4.10;2.85;;;24.00;95.80;;;;;;4154876;28;20777;-64
2022/05/25 10:42:37;;;;;;;4.50;3.05;;;23.90;95.90;;;;;;4155542;28;20103;-63
2022/05/25 10:44:58;;;;;;;4.85;2.78;;;23.70;96.20;;;;;;4154801;28;20049;-62
2022/05/25 10:46:59;;;;;;;6.00;2.65;;;23.70;96.80;;;;;;4155001;28;20430;-62
2022/05/25 10:49:23;;;;;;;3.92;2.65;;;23.90;96.70;;;;;;4154734;28;20520;-62
2022/05/25 10:51:46;;;;;;;7.03;2.80;;;24.20;96.70;;;;;;4148332;28;20033;-63
2022/05/25 10:56:52;;;;;;;4.60;2.70;;;24.10;95.80;;;;;;4158304;28;20139;-63
2022/05/25 10:59:10;;;;;;;3.35;2.28;;;24.20;95.50;;;;;;4138274;28;20123;-63
2022/05/25 11:01:18;;;;;;;3.58;2.50;;;24.10;95.50;;;;;;4157750;28;20045;-62
2022/05/25 11:03:51;;;;;;;5.53;2.60;;;24.10;95.40;;;;;;4157946;28;20833;-64
2022/05/25 11:06:04;;;;;;;4.30;2.28;;;24.10;95.20;;;;;;4157951;28;20033;-63
2022/05/25 11:08:33;;;;;;;4.07;2.50;;;24.00;94.80;;;;;;4158317;28;20037;-63
2022/05/25 11:10:43;;;;;;;3.45;2.40;;;24.20;94.70;;;;;;4157424;28;20041;-62
2022/05/25 11:12:47;;;;;;;2.88;2.45;;;24.50;94.50;;;;;;4157931;28;20591;-64
2022/05/25 11:14:53;;;;;;;3.97;2.60;;;;;;;;;;4155814;28;20221;-62
2022/05/25 11:16:59;;;;;;;3.75;2.05;;;;;;;;;;4157867;28;21014;-64
2022/05/25 11:19:54;;;;;;;3.08;2.25;;;24.60;93.90;;;;;;4157666;28;20140;-64
2022/05/25 11:22:05;;;;;;;4.80;2.65;;;24.70;93.10;;;;;;4122928;28;20046;-64